Lakeshore, Mississippi
Current Conditions -  °F | °C
As of 7:55 AM on Saturday 20 Dec 2014 (Local Time) from KHSA Reporting Station
Overcast Overcast  
Wind Chill: 43°   Ceiling: 700
Heat Index: 46°   Visibility: 7mi
Dew Point: 43°   Wind: 7mph
Humidity: 87%   Direction: 40°NE
Pressure: 30.13"   Gusts: NA
Location:  30.25°N, 89.44°W
Report Text: KHSA 201355Z 04006KT 7SM OVC007 08/06 A3013
Loading
Personal Weather Stations






























Interactive Weather Map New forecast layout! Learn more

10-Day Weather Forecast

Advertisements
Track Severe Weather on mobile